sensor_id;sensor_type;location;lat;lon;timestamp;P1;durP1;ratioP1;P2;durP2;ratioP2
16119;SDS011;12670;53.502;10.252;2022-08-14T00:01:56;6.70;;;2.45;;
16119;SDS011;12670;53.502;10.252;2022-08-14T00:05:05;8.20;;;2.40;;
16119;SDS011;12670;53.502;10.252;2022-08-14T00:08:11;7.53;;;2.43;;
16119;SDS011;12670;53.502;10.252;2022-08-14T00:11:14;3.90;;;2.43;;
16119;SDS011;12670;53.502;10.252;2022-08-14T00:14:17;8.20;;;2.17;;
16119;SDS011;12670;53.502;10.252;2022-08-14T00:17:20;2.42;;;2.17;;
16119;SDS011;12670;53.502;10.252;2022-08-14T00:20:25;3.87;;;2.73;;
16119;SDS011;12670;53.502;10.252;2022-08-14T00:23:37;5.97;;;2.70;;
16119;SDS011;12670;53.502;10.252;2022-08-14T00:26:40;4.47;;;2.30;;
16119;SDS011;12670;53.502;10.252;2022-08-14T00:29:43;3.93;;;2.13;;
16119;SDS011;12670;53.502;10.252;2022-08-14T00:32:49;7.07;;;2.30;;
16119;SDS011;12670;53.502;10.252;2022-08-14T00:36:03;4.10;;;2.40;;
16119;SDS011;12670;53.502;10.252;2022-08-14T00:39:26;3.20;;;2.50;;
16119;SDS011;12670;53.502;10.252;2022-08-14T00:42:30;6.80;;;2.70;;
16119;SDS011;12670;53.502;10.252;2022-08-14T00:45:53;6.13;;;2.43;;
16119;SDS011;12670;53.502;10.252;2022-08-14T00:48:56;6.90;;;2.40;;
16119;SDS011;12670;53.502;10.252;2022-08-14T00:52:00;7.53;;;2.67;;
16119;SDS011;12670;53.502;10.252;2022-08-14T00:55:03;7.63;;;2.23;;
16119;SDS011;12670;53.502;10.252;2022-08-14T00:58:08;11.73;;;2.30;;
16119;SDS011;12670;53.502;10.252;2022-08-14T01:01:33;11.23;;;2.80;;
16119;SDS011;12670;53.502;10.252;2022-08-14T01:04:37;6.83;;;2.67;;
16119;SDS011;12670;53.502;10.252;2022-08-14T01:07:56;5.70;;;2.43;;
16119;SDS011;12670;53.502;10.252;2022-08-14T01:10:59;5.67;;;2.47;;
16119;SDS011;12670;53.502;10.252;2022-08-14T01:14:03;7.60;;;2.67;;
16119;SDS011;12670;53.502;10.252;2022-08-14T01:17:26;4.57;;;2.47;;
16119;SDS011;12670;53.502;10.252;2022-08-14T01:20:53;6.13;;;2.77;;
16119;SDS011;12670;53.502;10.252;2022-08-14T01:24:06;5.37;;;2.70;;
16119;SDS011;12670;53.502;10.252;2022-08-14T01:27:13;6.03;;;2.30;;
16119;SDS011;12670;53.502;10.252;2022-08-14T01:30:17;7.30;;;2.50;;
16119;SDS011;12670;53.502;10.252;2022-08-14T01:33:27;6.47;;;2.20;;
16119;SDS011;12670;53.502;10.252;2022-08-14T01:36:39;5.93;;;2.40;;
16119;SDS011;12670;53.502;10.252;2022-08-14T01:39:44;3.60;;;2.60;;
16119;SDS011;12670;53.502;10.252;2022-08-14T01:42:47;6.47;;;2.60;;
16119;SDS011;12670;53.502;10.252;2022-08-14T01:45:52;4.57;;;2.63;;
16119;SDS011;12670;53.502;10.252;2022-08-14T01:49:07;3.40;;;2.50;;
16119;SDS011;12670;53.502;10.252;2022-08-14T01:52:13;6.40;;;2.50;;
16119;SDS011;12670;53.502;10.252;2022-08-14T01:55:37;7.27;;;2.27;;
16119;SDS011;12670;53.502;10.252;2022-08-14T01:58:41;5.07;;;2.33;;
16119;SDS011;12670;53.502;10.252;2022-08-14T02:01:59;5.03;;;2.30;;
16119;SDS011;12670;53.502;10.252;2022-08-14T02:05:04;6.40;;;2.47;;
16119;SDS011;12670;53.502;10.252;2022-08-14T02:08:08;3.43;;;2.33;;
16119;SDS011;12670;53.502;10.252;2022-08-14T02:11:12;5.33;;;2.53;;
16119;SDS011;12670;53.502;10.252;2022-08-14T02:14:20;3.50;;;2.50;;
16119;SDS011;12670;53.502;10.252;2022-08-14T02:17:32;4.70;;;2.17;;
16119;SDS011;12670;53.502;10.252;2022-08-14T02:20:35;4.20;;;2.33;;
16119;SDS011;12670;53.502;10.252;2022-08-14T02:23:40;6.07;;;2.33;;
16119;SDS011;12670;53.502;10.252;2022-08-14T02:26:44;2.33;;;2.07;;
16119;SDS011;12670;53.502;10.252;2022-08-14T02:30:08;4.13;;;2.50;;
16119;SDS011;12670;53.502;10.252;2022-08-14T02:33:13;4.77;;;2.60;;
16119;SDS011;12670;53.502;10.252;2022-08-14T02:36:16;5.13;;;2.43;;
16119;SDS011;12670;53.502;10.252;2022-08-14T02:39:41;4.00;;;2.40;;
16119;SDS011;12670;53.502;10.252;2022-08-14T02:42:47;8.30;;;2.50;;
16119;SDS011;12670;53.502;10.252;2022-08-14T02:45:57;5.70;;;2.70;;
16119;SDS011;12670;53.502;10.252;2022-08-14T02:49:01;3.80;;;2.30;;
16119;SDS011;12670;53.502;10.252;2022-08-14T02:52:06;5.43;;;2.47;;
16119;SDS011;12670;53.502;10.252;2022-08-14T02:55:30;5.27;;;2.73;;
16119;SDS011;12670;53.502;10.252;2022-08-14T02:58:35;6.60;;;2.60;;
16119;SDS011;12670;53.502;10.252;2022-08-14T03:01:42;12.77;;;2.63;;
16119;SDS011;12670;53.502;10.252;2022-08-14T03:04:55;6.07;;;2.60;;
16119;SDS011;12670;53.502;10.252;2022-08-14T03:08:05;5.50;;;2.40;;
16119;SDS011;12670;53.502;10.252;2022-08-14T03:11:11;6.77;;;2.57;;
16119;SDS011;12670;53.502;10.252;2022-08-14T03:14:17;5.30;;;2.30;;
16119;SDS011;12670;53.502;10.252;2022-08-14T03:17:21;6.43;;;2.20;;
16119;SDS011;12670;53.502;10.252;2022-08-14T03:20:25;4.30;;;2.57;;
16119;SDS011;12670;53.502;10.252;2022-08-14T03:23:29;4.43;;;2.60;;
16119;SDS011;12670;53.502;10.252;2022-08-14T03:26:39;6.03;;;2.53;;
16119;SDS011;12670;53.502;10.252;2022-08-14T03:29:46;7.63;;;2.27;;
16119;SDS011;12670;53.502;10.252;2022-08-14T03:32:48;4.83;;;2.40;;
16119;SDS011;12670;53.502;10.252;2022-08-14T03:35:51;4.33;;;2.60;;
16119;SDS011;12670;53.502;10.252;2022-08-14T03:39:06;8.50;;;2.53;;
16119;SDS011;12670;53.502;10.252;2022-08-14T03:42:22;8.17;;;2.20;;
16119;SDS011;12670;53.502;10.252;2022-08-14T03:45:38;4.87;;;2.30;;
16119;SDS011;12670;53.502;10.252;2022-08-14T03:48:48;3.40;;;2.57;;
16119;SDS011;12670;53.502;10.252;2022-08-14T03:51:54;6.13;;;2.40;;
16119;SDS011;12670;53.502;10.252;2022-08-14T03:54:58;3.60;;;2.40;;
16119;SDS011;12670;53.502;10.252;2022-08-14T03:58:01;4.90;;;2.50;;
16119;SDS011;12670;53.502;10.252;2022-08-14T04:01:06;6.27;;;2.50;;
16119;SDS011;12670;53.502;10.252;2022-08-14T04:04:09;7.57;;;2.50;;
16119;SDS011;12670;53.502;10.252;2022-08-14T04:07:13;3.87;;;2.40;;
16119;SDS011;12670;53.502;10.252;2022-08-14T04:10:18;6.27;;;2.27;;
16119;SDS011;12670;53.502;10.252;2022-08-14T04:13:33;9.60;;;2.33;;
16119;SDS011;12670;53.502;10.252;2022-08-14T04:16:40;9.00;;;2.13;;
16119;SDS011;12670;53.502;10.252;2022-08-14T04:19:48;5.40;;;2.60;;
16119;SDS011;12670;53.502;10.252;2022-08-14T04:22:51;3.37;;;2.53;;
16119;SDS011;12670;53.502;10.252;2022-08-14T04:25:55;8.27;;;2.80;;
16119;SDS011;12670;53.502;10.252;2022-08-14T04:28:59;3.57;;;2.27;;
16119;SDS011;12670;53.502;10.252;2022-08-14T04:32:17;4.37;;;2.20;;
16119;SDS011;12670;53.502;10.252;2022-08-14T04:35:40;10.60;;;2.73;;
16119;SDS011;12670;53.502;10.252;2022-08-14T04:38:56;6.57;;;2.47;;
16119;SDS011;12670;53.502;10.252;2022-08-14T04:42:16;3.83;;;2.43;;
16119;SDS011;12670;53.502;10.252;2022-08-14T04:45:38;6.97;;;2.50;;
16119;SDS011;12670;53.502;10.252;2022-08-14T04:48:43;6.07;;;2.30;;
16119;SDS011;12670;53.502;10.252;2022-08-14T04:52:00;6.43;;;2.57;;
16119;SDS011;12670;53.502;10.252;2022-08-14T04:55:15;4.17;;;2.40;;
16119;SDS011;12670;53.502;10.252;2022-08-14T04:58:19;4.40;;;2.50;;
16119;SDS011;12670;53.502;10.252;2022-08-14T05:01:34;5.23;;;2.30;;
16119;SDS011;12670;53.502;10.252;2022-08-14T05:04:42;5.23;;;2.50;;
16119;SDS011;12670;53.502;10.252;2022-08-14T05:08:02;4.90;;;2.27;;
16119;SDS011;12670;53.502;10.252;2022-08-14T05:11:09;6.67;;;2.40;;
16119;SDS011;12670;53.502;10.252;2022-08-14T05:14:14;3.60;;;2.40;;
16119;SDS011;12670;53.502;10.252;2022-08-14T05:17:40;4.67;;;2.30;;
16119;SDS011;12670;53.502;10.252;2022-08-14T05:20:46;5.63;;;2.37;;
16119;SDS011;12670;53.502;10.252;2022-08-14T05:24:10;3.97;;;2.33;;
16119;SDS011;12670;53.502;10.252;2022-08-14T05:27:19;6.70;;;2.47;;
16119;SDS011;12670;53.502;10.252;2022-08-14T05:30:24;5.30;;;2.40;;
16119;SDS011;12670;53.502;10.252;2022-08-14T05:33:28;5.23;;;2.63;;
16119;SDS011;12670;53.502;10.252;2022-08-14T05:36:34;3.33;;;2.07;;
16119;SDS011;12670;53.502;10.252;2022-08-14T05:39:39;2.90;;;2.30;;
16119;SDS011;12670;53.502;10.252;2022-08-14T05:42:42;4.67;;;2.70;;
16119;SDS011;12670;53.502;10.252;2022-08-14T05:45:47;5.50;;;2.27;;
16119;SDS011;12670;53.502;10.252;2022-08-14T05:48:51;6.90;;;2.67;;
16119;SDS011;12670;53.502;10.252;2022-08-14T05:51:58;3.70;;;2.17;;
16119;SDS011;12670;53.502;10.252;2022-08-14T05:55:02;11.63;;;2.50;;
16119;SDS011;12670;53.502;10.252;2022-08-14T05:58:06;5.10;;;2.23;;
16119;SDS011;12670;53.502;10.252;2022-08-14T06:01:10;3.50;;;2.47;;
16119;SDS011;12670;53.502;10.252;2022-08-14T06:04:14;3.37;;;2.13;;
16119;SDS011;12670;53.502;10.252;2022-08-14T06:07:18;6.23;;;2.40;;
16119;SDS011;12670;53.502;10.252;2022-08-14T06:10:21;6.67;;;2.27;;
16119;SDS011;12670;53.502;10.252;2022-08-14T06:13:25;2.83;;;2.05;;
16119;SDS011;12670;53.502;10.252;2022-08-14T06:16:41;5.00;;;2.17;;
16119;SDS011;12670;53.502;10.252;2022-08-14T06:19:45;4.03;;;2.20;;
16119;SDS011;12670;53.502;10.252;2022-08-14T06:22:50;6.30;;;2.30;;
16119;SDS011;12670;53.502;10.252;2022-08-14T06:25:53;6.55;;;2.40;;
16119;SDS011;12670;53.502;10.252;2022-08-14T06:28:58;5.85;;;2.60;;
16119;SDS011;12670;53.502;10.252;2022-08-14T06:32:00;4.32;;;2.20;;
16119;SDS011;12670;53.502;10.252;2022-08-14T06:35:24;4.20;;;2.10;;
16119;SDS011;12670;53.502;10.252;2022-08-14T06:38:30;9.90;;;2.42;;
16119;SDS011;12670;53.502;10.252;2022-08-14T06:41:32;3.35;;;2.33;;
16119;SDS011;12670;53.502;10.252;2022-08-14T06:44:55;6.88;;;2.15;;
16119;SDS011;12670;53.502;10.252;2022-08-14T06:47:58;5.97;;;2.75;;
16119;SDS011;12670;53.502;10.252;2022-08-14T06:51:01;4.88;;;2.00;;
16119;SDS011;12670;53.502;10.252;2022-08-14T06:54:07;5.65;;;1.98;;
16119;SDS011;12670;53.502;10.252;2022-08-14T06:57:10;8.15;;;2.35;;
16119;SDS011;12670;53.502;10.252;2022-08-14T07:00:14;8.95;;;2.40;;
16119;SDS011;12670;53.502;10.252;2022-08-14T07:03:27;6.40;;;2.55;;
16119;SDS011;12670;53.502;10.252;2022-08-14T07:06:48;5.25;;;2.40;;
16119;SDS011;12670;53.502;10.252;2022-08-14T07:09:52;5.13;;;2.50;;
16119;SDS011;12670;53.502;10.252;2022-08-14T07:12:55;7.30;;;2.33;;
16119;SDS011;12670;53.502;10.252;2022-08-14T07:16:04;3.88;;;2.25;;
16119;SDS011;12670;53.502;10.252;2022-08-14T07:19:07;6.18;;;2.60;;
16119;SDS011;12670;53.502;10.252;2022-08-14T07:22:11;6.22;;;2.40;;
16119;SDS011;12670;53.502;10.252;2022-08-14T07:25:22;3.45;;;2.25;;
16119;SDS011;12670;53.502;10.252;2022-08-14T07:28:34;7.75;;;2.47;;
16119;SDS011;12670;53.502;10.252;2022-08-14T07:31:43;6.80;;;2.17;;
16119;SDS011;12670;53.502;10.252;2022-08-14T07:34:47;10.88;;;2.38;;
16119;SDS011;12670;53.502;10.252;2022-08-14T07:37:49;6.13;;;2.67;;
16119;SDS011;12670;53.502;10.252;2022-08-14T07:40:54;7.78;;;2.80;;
16119;SDS011;12670;53.502;10.252;2022-08-14T07:43:58;6.15;;;2.30;;
16119;SDS011;12670;53.502;10.252;2022-08-14T07:47:20;4.38;;;2.10;;
16119;SDS011;12670;53.502;10.252;2022-08-14T07:50:23;3.17;;;2.20;;
16119;SDS011;12670;53.502;10.252;2022-08-14T07:53:35;4.40;;;2.60;;
16119;SDS011;12670;53.502;10.252;2022-08-14T07:56:42;5.95;;;2.60;;
16119;SDS011;12670;53.502;10.252;2022-08-14T07:59:50;4.22;;;2.20;;
16119;SDS011;12670;53.502;10.252;2022-08-14T08:02:53;4.22;;;2.80;;
16119;SDS011;12670;53.502;10.252;2022-08-14T08:06:00;7.60;;;2.60;;
16119;SDS011;12670;53.502;10.252;2022-08-14T08:09:10;10.30;;;2.75;;
16119;SDS011;12670;53.502;10.252;2022-08-14T08:12:16;12.52;;;2.85;;
16119;SDS011;12670;53.502;10.252;2022-08-14T08:15:32;6.20;;;2.78;;
16119;SDS011;12670;53.502;10.252;2022-08-14T08:18:36;4.72;;;2.47;;
16119;SDS011;12670;53.502;10.252;2022-08-14T08:21:39;5.35;;;2.85;;
16119;SDS011;12670;53.502;10.252;2022-08-14T08:24:44;10.10;;;2.60;;
16119;SDS011;12670;53.502;10.252;2022-08-14T08:27:55;6.85;;;2.40;;
16119;SDS011;12670;53.502;10.252;2022-08-14T08:31:01;4.68;;;2.38;;
16119;SDS011;12670;53.502;10.252;2022-08-14T08:34:08;6.57;;;2.90;;
16119;SDS011;12670;53.502;10.252;2022-08-14T08:37:19;6.32;;;3.08;;
16119;SDS011;12670;53.502;10.252;2022-08-14T08:40:26;6.85;;;2.50;;
16119;SDS011;12670;53.502;10.252;2022-08-14T08:43:33;8.60;;;2.85;;
16119;SDS011;12670;53.502;10.252;2022-08-14T08:46:38;5.78;;;2.60;;
16119;SDS011;12670;53.502;10.252;2022-08-14T08:49:43;11.60;;;2.80;;
16119;SDS011;12670;53.502;10.252;2022-08-14T08:53:00;5.40;;;2.88;;
16119;SDS011;12670;53.502;10.252;2022-08-14T08:56:05;7.28;;;2.83;;
16119;SDS011;12670;53.502;10.252;2022-08-14T08:59:19;6.63;;;2.97;;
16119;SDS011;12670;53.502;10.252;2022-08-14T09:02:31;8.73;;;3.42;;
16119;SDS011;12670;53.502;10.252;2022-08-14T09:05:34;4.63;;;2.97;;
16119;SDS011;12670;53.502;10.252;2022-08-14T09:08:38;12.95;;;3.10;;
16119;SDS011;12670;53.502;10.252;2022-08-14T09:11:47;10.07;;;3.35;;
16119;SDS011;12670;53.502;10.252;2022-08-14T09:14:51;5.80;;;3.10;;
16119;SDS011;12670;53.502;10.252;2022-08-14T09:17:54;7.47;;;3.10;;
16119;SDS011;12670;53.502;10.252;2022-08-14T09:20:58;6.65;;;3.42;;
16119;SDS011;12670;53.502;10.252;2022-08-14T09:24:01;6.32;;;3.40;;
16119;SDS011;12670;53.502;10.252;2022-08-14T09:27:23;7.45;;;3.28;;
16119;SDS011;12670;53.502;10.252;2022-08-14T09:30:27;10.60;;;3.50;;
16119;SDS011;12670;53.502;10.252;2022-08-14T09:33:39;8.23;;;3.40;;
16119;SDS011;12670;53.502;10.252;2022-08-14T09:37:09;14.00;;;3.60;;
16119;SDS011;12670;53.502;10.252;2022-08-14T09:40:20;11.48;;;3.58;;
16119;SDS011;12670;53.502;10.252;2022-08-14T09:43:42;5.75;;;3.10;;
16119;SDS011;12670;53.502;10.252;2022-08-14T09:46:53;7.63;;;3.40;;
16119;SDS011;12670;53.502;10.252;2022-08-14T09:49:58;17.73;;;3.70;;
16119;SDS011;12670;53.502;10.252;2022-08-14T09:53:02;7.13;;;3.50;;
16119;SDS011;12670;53.502;10.252;2022-08-14T09:56:18;7.10;;;3.47;;
16119;SDS011;12670;53.502;10.252;2022-08-14T09:59:38;4.75;;;3.10;;
16119;SDS011;12670;53.502;10.252;2022-08-14T10:02:52;7.38;;;3.88;;
16119;SDS011;12670;53.502;10.252;2022-08-14T10:06:06;6.15;;;3.35;;
16119;SDS011;12670;53.502;10.252;2022-08-14T10:09:10;6.95;;;3.50;;
16119;SDS011;12670;53.502;10.252;2022-08-14T10:12:17;7.63;;;3.67;;
16119;SDS011;12670;53.502;10.252;2022-08-14T10:15:30;7.90;;;3.50;;
16119;SDS011;12670;53.502;10.252;2022-08-14T10:18:35;7.93;;;3.40;;
16119;SDS011;12670;53.502;10.252;2022-08-14T10:21:38;6.95;;;3.20;;
16119;SDS011;12670;53.502;10.252;2022-08-14T10:25:08;5.43;;;3.20;;
16119;SDS011;12670;53.502;10.252;2022-08-14T10:28:15;14.60;;;3.90;;
16119;SDS011;12670;53.502;10.252;2022-08-14T10:31:39;10.93;;;3.50;;
16119;SDS011;12670;53.502;10.252;2022-08-14T10:34:46;7.63;;;3.50;;
16119;SDS011;12670;53.502;10.252;2022-08-14T10:37:53;12.68;;;3.60;;
16119;SDS011;12670;53.502;10.252;2022-08-14T10:41:07;12.65;;;3.60;;
16119;SDS011;12670;53.502;10.252;2022-08-14T10:44:14;10.18;;;3.50;;
16119;SDS011;12670;53.502;10.252;2022-08-14T10:47:21;8.35;;;3.67;;
16119;SDS011;12670;53.502;10.252;2022-08-14T10:50:56;6.20;;;3.47;;
16119;SDS011;12670;53.502;10.252;2022-08-14T10:54:04;6.25;;;3.40;;
16119;SDS011;12670;53.502;10.252;2022-08-14T10:57:29;6.68;;;3.25;;
16119;SDS011;12670;53.502;10.252;2022-08-14T11:00:39;5.68;;;3.40;;
16119;SDS011;12670;53.502;10.252;2022-08-14T11:03:47;8.95;;;3.78;;
16119;SDS011;12670;53.502;10.252;2022-08-14T11:06:58;11.43;;;3.75;;
16119;SDS011;12670;53.502;10.252;2022-08-14T11:10:03;6.47;;;3.22;;
16119;SDS011;12670;53.502;10.252;2022-08-14T11:13:07;6.47;;;3.40;;
16119;SDS011;12670;53.502;10.252;2022-08-14T11:16:10;6.10;;;3.70;;
16119;SDS011;12670;53.502;10.252;2022-08-14T11:19:13;8.30;;;3.95;;
16119;SDS011;12670;53.502;10.252;2022-08-14T11:22:18;7.18;;;3.78;;
16119;SDS011;12670;53.502;10.252;2022-08-14T11:25:43;29.17;;;4.38;;
16119;SDS011;12670;53.502;10.252;2022-08-14T11:28:53;10.93;;;4.25;;
16119;SDS011;12670;53.502;10.252;2022-08-14T11:32:00;7.88;;;4.13;;
16119;SDS011;12670;53.502;10.252;2022-08-14T11:35:04;8.88;;;3.90;;
16119;SDS011;12670;53.502;10.252;2022-08-14T11:38:08;8.63;;;4.05;;
16119;SDS011;12670;53.502;10.252;2022-08-14T11:41:13;6.55;;;4.30;;
16119;SDS011;12670;53.502;10.252;2022-08-14T11:44:17;7.22;;;3.58;;
16119;SDS011;12670;53.502;10.252;2022-08-14T11:47:40;6.45;;;4.13;;
16119;SDS011;12670;53.502;10.252;2022-08-14T11:51:10;8.65;;;4.05;;
16119;SDS011;12670;53.502;10.252;2022-08-14T11:54:15;5.82;;;3.90;;
16119;SDS011;12670;53.502;10.252;2022-08-14T11:57:20;8.20;;;4.05;;
16119;SDS011;12670;53.502;10.252;2022-08-14T12:00:23;6.25;;;3.80;;
16119;SDS011;12670;53.502;10.252;2022-08-14T12:03:36;7.60;;;4.53;;
16119;SDS011;12670;53.502;10.252;2022-08-14T12:06:53;12.30;;;4.20;;
16119;SDS011;12670;53.502;10.252;2022-08-14T12:09:58;6.03;;;4.50;;
16119;SDS011;12670;53.502;10.252;2022-08-14T12:13:20;8.50;;;4.47;;
16119;SDS011;12670;53.502;10.252;2022-08-14T12:16:27;11.52;;;4.30;;
16119;SDS011;12670;53.502;10.252;2022-08-14T12:19:41;10.75;;;4.88;;
16119;SDS011;12670;53.502;10.252;2022-08-14T12:22:51;9.35;;;4.45;;
16119;SDS011;12670;53.502;10.252;2022-08-14T12:26:02;8.32;;;4.82;;
16119;SDS011;12670;53.502;10.252;2022-08-14T12:29:26;13.93;;;4.50;;
16119;SDS011;12670;53.502;10.252;2022-08-14T12:32:38;6.15;;;4.32;;
16119;SDS011;12670;53.502;10.252;2022-08-14T12:35:42;5.35;;;4.50;;
16119;SDS011;12670;53.502;10.252;2022-08-14T12:38:45;9.93;;;4.53;;
16119;SDS011;12670;53.502;10.252;2022-08-14T12:41:55;8.68;;;4.63;;
16119;SDS011;12670;53.502;10.252;2022-08-14T12:45:07;8.23;;;4.85;;
16119;SDS011;12670;53.502;10.252;2022-08-14T12:48:17;89.25;;;6.90;;
16119;SDS011;12670;53.502;10.252;2022-08-14T12:51:31;7.95;;;4.63;;
16119;SDS011;12670;53.502;10.252;2022-08-14T12:54:35;10.98;;;4.57;;
16119;SDS011;12670;53.502;10.252;2022-08-14T12:58:02;9.30;;;4.82;;
16119;SDS011;12670;53.502;10.252;2022-08-14T13:01:26;6.90;;;4.43;;
16119;SDS011;12670;53.502;10.252;2022-08-14T13:04:31;8.60;;;4.85;;
16119;SDS011;12670;53.502;10.252;2022-08-14T13:07:35;7.97;;;4.43;;
16119;SDS011;12670;53.502;10.252;2022-08-14T13:10:45;13.02;;;4.72;;
16119;SDS011;12670;53.502;10.252;2022-08-14T13:13:54;6.13;;;4.40;;
16119;SDS011;12670;53.502;10.252;2022-08-14T13:17:00;8.95;;;4.75;;
16119;SDS011;12670;53.502;10.252;2022-08-14T13:20:07;7.90;;;4.63;;
16119;SDS011;12670;53.502;10.252;2022-08-14T13:23:25;35.22;;;5.90;;
16119;SDS011;12670;53.502;10.252;2022-08-14T13:26:36;13.98;;;5.18;;
16119;SDS011;12670;53.502;10.252;2022-08-14T13:29:48;9.30;;;4.63;;
16119;SDS011;12670;53.502;10.252;2022-08-14T13:32:54;7.35;;;4.75;;
16119;SDS011;12670;53.502;10.252;2022-08-14T13:35:58;9.40;;;4.68;;
16119;SDS011;12670;53.502;10.252;2022-08-14T13:39:02;7.30;;;4.63;;
16119;SDS011;12670;53.502;10.252;2022-08-14T13:42:05;11.55;;;5.07;;
16119;SDS011;12670;53.502;10.252;2022-08-14T13:45:15;9.10;;;5.05;;
16119;SDS011;12670;53.502;10.252;2022-08-14T13:48:20;6.65;;;4.97;;
16119;SDS011;12670;53.502;10.252;2022-08-14T13:51:37;12.23;;;5.00;;
16119;SDS011;12670;53.502;10.252;2022-08-14T13:54:41;8.48;;;4.88;;
16119;SDS011;12670;53.502;10.252;2022-08-14T13:57:46;8.10;;;5.15;;
16119;SDS011;12670;53.502;10.252;2022-08-14T14:01:06;11.18;;;4.82;;
16119;SDS011;12670;53.502;10.252;2022-08-14T14:04:12;8.25;;;4.50;;
16119;SDS011;12670;53.502;10.252;2022-08-14T14:07:20;8.07;;;4.75;;
16119;SDS011;12670;53.502;10.252;2022-08-14T14:10:24;5.95;;;4.57;;
16119;SDS011;12670;53.502;10.252;2022-08-14T14:13:28;5.80;;;4.70;;
16119;SDS011;12670;53.502;10.252;2022-08-14T14:16:35;8.23;;;4.75;;
16119;SDS011;12670;53.502;10.252;2022-08-14T14:19:39;14.10;;;4.80;;
16119;SDS011;12670;53.502;10.252;2022-08-14T14:22:46;9.15;;;4.50;;
16119;SDS011;12670;53.502;10.252;2022-08-14T14:26:03;12.48;;;4.75;;
16119;SDS011;12670;53.502;10.252;2022-08-14T14:29:14;5.50;;;4.40;;
16119;SDS011;12670;53.502;10.252;2022-08-14T14:32:28;9.00;;;4.78;;
16119;SDS011;12670;53.502;10.252;2022-08-14T14:35:32;6.22;;;4.93;;
16119;SDS011;12670;53.502;10.252;2022-08-14T14:38:40;8.45;;;4.60;;
16119;SDS011;12670;53.502;10.252;2022-08-14T14:41:45;8.27;;;4.47;;
16119;SDS011;12670;53.502;10.252;2022-08-14T14:44:59;5.70;;;4.43;;
16119;SDS011;12670;53.502;10.252;2022-08-14T14:48:07;9.15;;;4.55;;
16119;SDS011;12670;53.502;10.252;2022-08-14T14:51:11;8.07;;;4.70;;
16119;SDS011;12670;53.502;10.252;2022-08-14T14:54:16;7.75;;;5.00;;
16119;SDS011;12670;53.502;10.252;2022-08-14T14:57:32;6.75;;;4.68;;
16119;SDS011;12670;53.502;10.252;2022-08-14T15:00:36;8.38;;;5.13;;
16119;SDS011;12670;53.502;10.252;2022-08-14T15:03:42;11.00;;;5.75;;
16119;SDS011;12670;53.502;10.252;2022-08-14T15:06:46;8.32;;;5.03;;
16119;SDS011;12670;53.502;10.252;2022-08-14T15:09:49;6.95;;;4.57;;
16119;SDS011;12670;53.502;10.252;2022-08-14T15:12:51;10.18;;;4.40;;
16119;SDS011;12670;53.502;10.252;2022-08-14T15:15:58;9.38;;;4.20;;
16119;SDS011;12670;53.502;10.252;2022-08-14T15:19:02;10.10;;;4.85;;
16119;SDS011;12670;53.502;10.252;2022-08-14T15:22:05;7.10;;;5.03;;
16119;SDS011;12670;53.502;10.252;2022-08-14T15:25:11;5.38;;;4.40;;
16119;SDS011;12670;53.502;10.252;2022-08-14T15:28:18;7.55;;;5.00;;
16119;SDS011;12670;53.502;10.252;2022-08-14T15:31:22;6.05;;;5.00;;
16119;SDS011;12670;53.502;10.252;2022-08-14T15:34:25;6.45;;;4.72;;
16119;SDS011;12670;53.502;10.252;2022-08-14T15:37:49;7.47;;;5.00;;
16119;SDS011;12670;53.502;10.252;2022-08-14T15:40:56;9.40;;;5.10;;
16119;SDS011;12670;53.502;10.252;2022-08-14T15:44:08;7.97;;;5.18;;
16119;SDS011;12670;53.502;10.252;2022-08-14T15:47:27;9.13;;;5.38;;
16119;SDS011;12670;53.502;10.252;2022-08-14T15:50:32;6.00;;;4.90;;
16119;SDS011;12670;53.502;10.252;2022-08-14T15:53:35;14.57;;;5.45;;
16119;SDS011;12670;53.502;10.252;2022-08-14T15:56:40;8.07;;;5.30;;
16119;SDS011;12670;53.502;10.252;2022-08-14T15:59:44;10.48;;;5.20;;
16119;SDS011;12670;53.502;10.252;2022-08-14T16:03:11;7.65;;;5.10;;
16119;SDS011;12670;53.502;10.252;2022-08-14T16:06:18;8.80;;;5.30;;
16119;SDS011;12670;53.502;10.252;2022-08-14T16:09:23;8.82;;;5.05;;
16119;SDS011;12670;53.502;10.252;2022-08-14T16:12:27;6.60;;;5.20;;
16119;SDS011;12670;53.502;10.252;2022-08-14T16:15:42;8.30;;;4.93;;
16119;SDS011;12670;53.502;10.252;2022-08-14T16:18:53;10.60;;;5.15;;
16119;SDS011;12670;53.502;10.252;2022-08-14T16:22:01;6.68;;;4.97;;
16119;SDS011;12670;53.502;10.252;2022-08-14T16:25:26;9.65;;;5.15;;
16119;SDS011;12670;53.502;10.252;2022-08-14T16:28:35;7.70;;;4.75;;
16119;SDS011;12670;53.502;10.252;2022-08-14T16:31:39;11.68;;;5.00;;
16119;SDS011;12670;53.502;10.252;2022-08-14T16:34:44;10.00;;;4.93;;
16119;SDS011;12670;53.502;10.252;2022-08-14T16:37:56;9.00;;;4.03;;
16119;SDS011;12670;53.502;10.252;2022-08-14T16:41:20;8.93;;;4.28;;
16119;SDS011;12670;53.502;10.252;2022-08-14T16:44:27;8.48;;;4.10;;
16119;SDS011;12670;53.502;10.252;2022-08-14T16:47:36;10.25;;;4.18;;
16119;SDS011;12670;53.502;10.252;2022-08-14T16:50:39;10.32;;;4.35;;
16119;SDS011;12670;53.502;10.252;2022-08-14T16:53:47;7.45;;;3.80;;
16119;SDS011;12670;53.502;10.252;2022-08-14T16:56:50;8.77;;;3.58;;
16119;SDS011;12670;53.502;10.252;2022-08-14T16:59:53;5.07;;;3.60;;
16119;SDS011;12670;53.502;10.252;2022-08-14T17:03:00;9.32;;;3.65;;
16119;SDS011;12670;53.502;10.252;2022-08-14T17:06:11;6.05;;;3.67;;
16119;SDS011;12670;53.502;10.252;2022-08-14T17:09:35;6.80;;;3.78;;
16119;SDS011;12670;53.502;10.252;2022-08-14T17:12:44;7.30;;;3.80;;
16119;SDS011;12670;53.502;10.252;2022-08-14T17:15:48;8.57;;;3.38;;
16119;SDS011;12670;53.502;10.252;2022-08-14T17:19:07;10.77;;;3.55;;
16119;SDS011;12670;53.502;10.252;2022-08-14T17:22:19;6.28;;;3.53;;
16119;SDS011;12670;53.502;10.252;2022-08-14T17:25:29;6.78;;;3.63;;
16119;SDS011;12670;53.502;10.252;2022-08-14T17:28:37;10.75;;;3.75;;
16119;SDS011;12670;53.502;10.252;2022-08-14T17:31:53;14.52;;;3.70;;
16119;SDS011;12670;53.502;10.252;2022-08-14T17:35:02;7.65;;;3.67;;
16119;SDS011;12670;53.502;10.252;2022-08-14T17:38:10;7.38;;;3.70;;
16119;SDS011;12670;53.502;10.252;2022-08-14T17:41:35;8.52;;;3.53;;
16119;SDS011;12670;53.502;10.252;2022-08-14T17:44:44;8.32;;;3.45;;
16119;SDS011;12670;53.502;10.252;2022-08-14T17:47:48;7.40;;;3.08;;
16119;SDS011;12670;53.502;10.252;2022-08-14T17:50:51;18.65;;;4.15;;
16119;SDS011;12670;53.502;10.252;2022-08-14T17:54:01;17.30;;;4.03;;
16119;SDS011;12670;53.502;10.252;2022-08-14T17:57:11;11.25;;;3.50;;
16119;SDS011;12670;53.502;10.252;2022-08-14T18:00:15;9.73;;;3.72;;
16119;SDS011;12670;53.502;10.252;2022-08-14T18:03:18;9.70;;;4.00;;
16119;SDS011;12670;53.502;10.252;2022-08-14T18:06:42;8.50;;;3.33;;
16119;SDS011;12670;53.502;10.252;2022-08-14T18:10:06;5.47;;;3.45;;
16119;SDS011;12670;53.502;10.252;2022-08-14T18:13:31;6.43;;;3.55;;
16119;SDS011;12670;53.502;10.252;2022-08-14T18:16:53;6.25;;;3.50;;
16119;SDS011;12670;53.502;10.252;2022-08-14T18:19:57;6.75;;;3.47;;
16119;SDS011;12670;53.502;10.252;2022-08-14T18:23:02;5.05;;;3.40;;
16119;SDS011;12670;53.502;10.252;2022-08-14T18:26:06;11.32;;;3.22;;
16119;SDS011;12670;53.502;10.252;2022-08-14T18:29:31;8.52;;;3.40;;
16119;SDS011;12670;53.502;10.252;2022-08-14T18:32:43;6.53;;;3.25;;
16119;SDS011;12670;53.502;10.252;2022-08-14T18:35:55;9.38;;;3.75;;
16119;SDS011;12670;53.502;10.252;2022-08-14T18:39:19;12.95;;;3.55;;
16119;SDS011;12670;53.502;10.252;2022-08-14T18:42:41;17.52;;;3.78;;